createdAt,value
2019-02-16T00:01:13.959Z,66.90
2019-02-16T00:03:44.415Z,74.87
2019-02-16T00:06:14.719Z,76.63
2019-02-16T00:08:45.347Z,71.70
2019-02-16T00:11:15.636Z,66.87
2019-02-16T00:13:46.103Z,49.13
2019-02-16T00:16:16.390Z,66.77
2019-02-16T00:18:46.727Z,57.07
2019-02-16T00:21:17.063Z,64.23
2019-02-16T00:23:47.622Z,57.87
2019-02-16T00:26:18.084Z,56.40
2019-02-16T00:28:48.416Z,67.60
2019-02-16T00:31:18.715Z,71.73
2019-02-16T00:33:49.295Z,74.20
2019-02-16T00:36:19.615Z,80.87
2019-02-16T00:38:50.259Z,71.67
2019-02-16T00:41:20.586Z,71.30
2019-02-16T00:43:51.116Z,64.60
2019-02-16T00:46:21.423Z,96.72
2019-02-16T00:48:51.812Z,86.00
2019-02-16T00:51:22.087Z,79.87
2019-02-16T00:53:52.649Z,94.10
2019-02-16T00:56:22.915Z,102.37
2019-02-16T00:58:53.251Z,89.03
2019-02-16T01:01:23.563Z,63.90
2019-02-16T01:03:53.911Z,65.40
2019-02-16T01:06:24.210Z,74.13
2019-02-16T01:08:54.690Z,67.43
2019-02-16T01:11:25.157Z,72.53
2019-02-16T01:13:55.466Z,64.67
2019-02-16T01:16:25.987Z,56.03
2019-02-16T01:18:56.302Z,57.67
2019-02-16T01:21:26.596Z,63.33
2019-02-16T01:23:57.222Z,64.27
2019-02-16T01:26:27.519Z,59.10
2019-02-16T01:28:57.863Z,68.33
2019-02-16T01:31:28.180Z,65.20
2019-02-16T01:33:58.551Z,65.10
2019-02-16T01:36:29.000Z,52.30
2019-02-16T01:38:59.478Z,53.50
2019-02-16T01:41:29.909Z,62.30
2019-02-16T01:44:00.275Z,55.10
2019-02-16T01:46:30.588Z,55.07
2019-02-16T01:49:00.936Z,58.87
2019-02-16T01:51:32.244Z,63.50
2019-02-16T01:54:02.900Z,59.77
2019-02-16T01:56:33.191Z,58.97
2019-02-16T01:59:03.577Z,56.63
2019-02-16T02:01:33.951Z,56.80
2019-02-16T02:04:04.272Z,56.80
2019-02-16T02:06:34.583Z,58.63
2019-02-16T02:09:06.378Z,56.13
2019-02-16T02:11:38.479Z,61.43
2019-02-16T02:14:08.874Z,61.20
2019-02-16T02:16:39.191Z,70.10
2019-02-16T02:19:09.498Z,55.67
2019-02-16T02:21:41.456Z,57.97
2019-02-16T02:24:12.147Z,55.83
2019-02-16T02:26:42.415Z,61.53
2019-02-16T02:29:12.722Z,63.23
2019-02-16T02:31:43.192Z,63.53
2019-02-16T02:34:13.527Z,60.63
2019-02-16T02:36:43.971Z,66.83
2019-02-16T02:39:14.530Z,59.53
2019-02-16T02:41:44.938Z,64.73
2019-02-16T02:44:15.251Z,60.43
2019-02-16T02:46:45.592Z,61.37
2019-02-16T02:49:16.035Z,63.47
2019-02-16T02:51:52.293Z,57.93
2019-02-16T02:54:18.668Z,63.80
2019-02-16T02:56:48.983Z,62.07
2019-02-16T02:59:19.521Z,63.77
2019-02-16T03:04:47.021Z,61.13
2019-02-16T03:07:17.642Z,58.73
2019-02-16T03:09:48.165Z,59.27
2019-02-16T03:12:21.295Z,53.87
2019-02-16T03:14:51.742Z,51.90
2019-02-16T03:17:22.183Z,51.53
2019-02-16T03:19:52.918Z,55.63
2019-02-16T03:22:23.283Z,66.50
2019-02-16T03:24:53.628Z,48.83
2019-02-16T03:28:01.543Z,49.50
2019-02-16T03:31:14.407Z,49.33
2019-02-16T03:34:01.288Z,47.07
2019-02-16T03:37:04.521Z,47.40
2019-02-16T03:39:38.876Z,45.03
2019-02-16T03:42:09.419Z,44.00
2019-02-16T03:44:39.782Z,46.73
2019-02-16T03:47:13.267Z,45.43
2019-02-16T03:49:43.595Z,53.83
2019-02-16T03:52:14.438Z,44.23
2019-02-16T03:54:44.711Z,45.53
2019-02-16T03:57:15.271Z,46.40
2019-02-16T03:59:45.569Z,45.70
2019-02-16T04:02:16.088Z,48.97
2019-02-16T04:04:46.454Z,43.97
2019-02-16T04:07:17.157Z,52.30
2019-02-16T04:09:50.519Z,43.37
2019-02-16T04:12:21.216Z,51.43
2019-02-16T04:14:51.586Z,49.43
2019-02-16T04:17:25.140Z,53.67
2019-02-16T04:19:55.520Z,46.03
2019-02-16T04:22:26.286Z,48.70
2019-02-16T04:24:56.579Z,45.40
2019-02-16T04:27:27.119Z,48.97
2019-02-16T04:29:57.463Z,45.83
2019-02-16T04:32:28.085Z,45.27
2019-02-16T04:34:58.391Z,48.60
2019-02-16T04:37:28.979Z,46.57
2019-02-16T04:39:59.314Z,50.23
2019-02-16T04:42:29.614Z,50.00
2019-02-16T04:45:00.173Z,44.03
2019-02-16T04:47:30.694Z,46.30
2019-02-16T04:50:01.194Z,41.70
2019-02-16T04:52:34.738Z,40.97
2019-02-16T04:55:03.596Z,42.50
2019-02-16T04:57:33.905Z,46.63
2019-02-16T05:00:04.720Z,45.00
2019-02-16T05:02:35.092Z,39.37
2019-02-16T05:05:05.943Z,43.92
2019-02-16T05:07:36.384Z,43.37
2019-02-16T05:10:07.093Z,48.53
2019-02-16T05:12:38.373Z,39.33
2019-02-16T05:15:09.204Z,39.93
2019-02-16T05:17:39.498Z,44.83
2019-02-16T05:20:10.007Z,48.13
2019-02-16T05:22:44.530Z,47.67
2019-02-16T05:25:12.870Z,44.93
2019-02-16T05:27:43.099Z,50.50
2019-02-16T05:30:15.195Z,44.90
2019-02-16T05:32:45.523Z,48.13
2019-02-16T05:35:15.894Z,49.77
2019-02-16T05:37:46.355Z,50.90
2019-02-16T05:40:17.812Z,48.23
2019-02-16T05:42:48.206Z,45.50
2019-02-16T05:45:18.557Z,48.90
2019-02-16T05:47:49.220Z,45.13
2019-02-16T05:50:19.568Z,50.93
2019-02-16T05:52:54.402Z,50.03
2019-02-16T05:55:22.304Z,49.63
2019-02-16T05:57:53.758Z,57.33
2019-02-16T06:00:29.024Z,50.47
2019-02-16T06:02:59.529Z,49.87
2019-02-16T06:05:29.819Z,56.63
2019-02-16T06:08:00.392Z,54.60
2019-02-16T06:10:32.803Z,50.73
2019-02-16T06:13:03.383Z,51.60
2019-02-16T06:15:34.935Z,55.90
2019-02-16T06:18:07.133Z,50.23
2019-02-16T06:20:37.490Z,52.73
2019-02-16T06:23:08.319Z,54.17
2019-02-16T06:25:38.650Z,55.10
2019-02-16T06:28:09.241Z,53.23
2019-02-16T06:30:39.660Z,60.13
2019-02-16T06:33:10.187Z,58.63
2019-02-16T06:35:52.100Z,58.67
2019-02-16T06:38:23.007Z,56.33
2019-02-16T06:40:53.363Z,56.27
2019-02-16T06:43:25.755Z,60.87
2019-02-16T06:45:57.231Z,56.77
2019-02-16T06:48:30.603Z,58.77
2019-02-16T06:51:00.927Z,57.03
2019-02-16T06:53:31.616Z,63.50
2019-02-16T06:56:06.256Z,58.80
2019-02-16T06:58:36.873Z,59.97
2019-02-16T07:01:07.235Z,61.90
2019-02-16T07:03:37.603Z,55.47
2019-02-16T07:06:08.235Z,62.77
2019-02-16T07:08:38.779Z,66.77
2019-02-16T07:11:09.291Z,63.93
2019-02-16T07:13:39.592Z,61.13
2019-02-16T07:16:27.183Z,62.83
2019-02-16T07:19:01.572Z,61.80
2019-02-16T07:21:32.232Z,62.23
2019-02-16T07:24:02.748Z,56.33
2019-02-16T07:26:33.046Z,59.57
2019-02-16T07:29:03.379Z,57.67
2019-02-16T07:31:33.803Z,60.67
2019-02-16T07:34:04.111Z,52.77
2019-02-16T07:36:34.559Z,57.40
2019-02-16T07:39:06.266Z,56.80
2019-02-16T07:41:38.975Z,51.37
2019-02-16T07:44:28.443Z,58.53
2019-02-16T07:47:16.210Z,54.10
2019-02-16T07:49:52.511Z,52.10
2019-02-16T07:52:50.687Z,56.20
2019-02-16T07:55:27.579Z,50.57
2019-02-16T07:58:11.448Z,49.43
2019-02-16T08:00:59.556Z,47.87
2019-02-16T08:03:47.153Z,50.30
2019-02-16T08:06:40.478Z,49.63
2019-02-16T08:09:42.581Z,46.43
2019-02-16T08:12:50.527Z,48.90
2019-02-16T08:15:38.456Z,44.50
2019-02-16T08:18:26.094Z,44.83
2019-02-16T08:21:24.474Z,46.00
2019-02-16T08:24:05.599Z,45.23
2019-02-16T08:27:02.207Z,43.73
2019-02-16T08:30:00.792Z,46.87
2019-02-16T08:33:04.963Z,44.70
2019-02-16T08:36:06.798Z,50.77
2019-02-16T08:38:54.807Z,44.80
2019-02-16T08:41:40.138Z,47.33
2019-02-16T08:44:25.233Z,47.13
2019-02-16T08:47:19.895Z,47.63
2019-02-16T08:49:59.363Z,47.63
2019-02-16T08:52:42.464Z,43.37
2019-02-16T08:55:27.186Z,45.77
2019-02-16T08:58:25.809Z,46.70
2019-02-16T09:01:18.215Z,46.13
2019-02-16T09:04:16.819Z,44.38
2019-02-16T09:07:04.418Z,43.93
2019-02-16T09:10:01.138Z,50.57
2019-02-16T09:12:40.371Z,43.10
2019-02-16T09:15:30.464Z,46.07
2019-02-16T09:18:19.623Z,43.67
2019-02-16T09:21:15.342Z,48.00
2019-02-16T09:24:00.663Z,44.80
2019-02-16T09:26:48.703Z,44.27
2019-02-16T09:29:47.155Z,45.67
2019-02-16T09:32:34.447Z,44.00
2019-02-16T09:35:22.614Z,46.30
2019-02-16T09:38:08.935Z,46.90
2019-02-16T09:41:00.355Z,42.60
2019-02-16T09:43:45.947Z,44.00
2019-02-16T09:46:28.819Z,47.23
2019-02-16T09:49:06.144Z,42.53
2019-02-16T09:52:13.486Z,41.70
2019-02-16T09:54:58.227Z,46.47
2019-02-16T09:57:47.518Z,43.37
2019-02-16T10:00:42.122Z,44.43
2019-02-16T10:03:34.451Z,42.83
2019-02-16T10:06:33.346Z,39.40
2019-02-16T10:09:23.870Z,38.57
2019-02-16T10:12:06.275Z,40.23
2019-02-16T10:14:46.358Z,40.63
2019-02-16T10:17:34.479Z,38.67
2019-02-16T10:20:40.429Z,41.83
2019-02-16T10:23:19.822Z,43.43
2019-02-16T10:25:59.527Z,41.17
2019-02-16T10:29:04.127Z,41.07
2019-02-16T10:31:51.417Z,38.50
2019-02-16T10:34:27.671Z,37.77
2019-02-16T10:37:16.341Z,37.57
2019-02-16T10:40:11.613Z,36.90
2019-02-16T10:43:06.577Z,38.73
2019-02-16T10:46:05.413Z,42.63
2019-02-16T10:48:54.258Z,38.97
2019-02-16T10:51:32.554Z,37.37
2019-02-16T10:54:12.435Z,40.50
2019-02-16T10:57:14.116Z,36.33
2019-02-16T11:00:06.367Z,38.80
2019-02-16T11:03:02.146Z,38.20
2019-02-16T11:05:42.903Z,36.30
2019-02-16T11:08:44.067Z,37.17
2019-02-16T11:11:31.795Z,35.63
2019-02-16T11:14:27.063Z,36.53
2019-02-16T11:17:28.235Z,39.03
2019-02-16T11:20:23.998Z,35.07
2019-02-16T11:23:11.959Z,34.00
2019-02-16T11:26:04.587Z,34.33
2019-02-16T11:28:48.915Z,30.10
2019-02-16T11:31:56.559Z,33.77
2019-02-16T11:34:58.007Z,33.90
2019-02-16T11:37:47.372Z,33.03
2019-02-16T11:40:36.896Z,32.37
2019-02-16T11:43:32.499Z,33.23
2019-02-16T11:46:25.094Z,34.17
2019-02-16T11:49:20.443Z,33.37
2019-02-16T11:52:06.582Z,32.80
2019-02-16T11:54:55.830Z,40.13
2019-02-16T11:57:44.972Z,37.17
2019-02-16T12:00:34.395Z,34.90
2019-02-16T12:03:14.761Z,32.83
2019-02-16T12:06:07.639Z,33.47
2019-02-16T12:08:55.324Z,33.77
2019-02-16T12:11:45.892Z,34.57
2019-02-16T12:14:35.287Z,32.67
2019-02-16T12:17:22.247Z,32.63
2019-02-16T12:20:33.359Z,32.70
2019-02-16T12:23:09.894Z,32.83
2019-02-16T12:26:14.459Z,31.13
2019-02-16T12:29:09.804Z,31.30
2019-02-16T12:32:13.940Z,31.50
2019-02-16T12:35:12.235Z,30.57
2019-02-16T12:38:07.604Z,31.33
2019-02-16T12:40:43.299Z,28.60
2019-02-16T12:43:30.773Z,26.40
2019-02-16T12:46:18.431Z,26.70
2019-02-16T12:48:58.104Z,29.40
2019-02-16T12:51:37.823Z,27.30
2019-02-16T12:54:25.792Z,29.60
2019-02-16T12:57:21.239Z,29.23
2019-02-16T13:00:09.509Z,28.47
2019-02-16T13:02:58.120Z,28.10
2019-02-16T13:06:05.793Z,31.53
2019-02-16T13:08:56.883Z,30.97
2019-02-16T13:11:37.459Z,30.43
2019-02-16T13:14:14.167Z,29.80
2019-02-16T13:17:02.489Z,33.03
2019-02-16T13:19:58.711Z,30.23
2019-02-16T13:22:46.714Z,32.17
2019-02-16T13:25:53.999Z,27.87
2019-02-16T13:28:52.350Z,32.70
2019-02-16T13:31:47.352Z,33.73
2019-02-16T13:34:37.065Z,32.97
2019-02-16T13:37:14.265Z,32.73
2019-02-16T13:40:09.697Z,35.40
2019-02-16T13:42:47.794Z,30.33
2019-02-16T13:45:29.584Z,30.87
2019-02-16T13:48:21.679Z,34.40
2019-02-16T13:51:16.359Z,34.23
2019-02-16T13:54:14.440Z,31.17
2019-02-16T13:56:57.914Z,29.90
2019-02-16T13:59:50.795Z,39.07
2019-02-16T14:02:49.642Z,37.53
2019-02-16T14:05:42.258Z,36.67
2019-02-16T14:08:34.759Z,36.03
2019-02-16T14:11:29.920Z,35.83
2019-02-16T14:14:10.214Z,35.13
2019-02-16T14:17:02.707Z,33.37
2019-02-16T14:19:33.331Z,36.30
2019-02-16T14:22:03.912Z,36.77
2019-02-16T14:24:43.519Z,40.27
2019-02-16T14:27:13.862Z,36.93
2019-02-16T14:29:44.446Z,37.33
2019-02-16T14:32:14.977Z,36.47
2019-02-16T14:34:45.935Z,36.93
2019-02-16T14:37:28.553Z,34.97
2019-02-16T14:39:59.034Z,32.57
2019-02-16T14:42:29.543Z,40.50
2019-02-16T14:45:00.139Z,38.60
2019-02-16T14:47:30.533Z,35.63
2019-02-16T14:50:01.555Z,33.67
2019-02-16T14:52:32.891Z,39.37
2019-02-16T14:55:03.500Z,35.23
2019-02-16T14:57:33.828Z,36.63
2019-02-16T15:00:04.823Z,35.37
2019-02-16T15:02:36.871Z,34.97
2019-02-16T15:05:07.911Z,38.80
2019-02-16T15:07:38.335Z,36.77
2019-02-16T15:10:10.929Z,34.83
2019-02-16T15:12:41.383Z,37.23
2019-02-16T15:15:11.747Z,47.87
2019-02-16T15:17:42.373Z,41.57
2019-02-16T15:20:13.547Z,38.67
2019-02-16T15:22:43.919Z,37.10
2019-02-16T15:25:14.395Z,40.53
2019-02-16T15:27:44.767Z,35.73
2019-02-16T15:30:16.518Z,41.60
2019-02-16T15:32:46.995Z,39.83
2019-02-16T15:35:17.723Z,36.93
2019-02-16T15:37:48.073Z,43.23
2019-02-16T15:40:18.522Z,41.93
2019-02-16T15:42:48.939Z,39.10
2019-02-16T15:45:19.419Z,41.07
2019-02-16T15:47:50.771Z,46.10
2019-02-16T15:50:21.564Z,34.07
2019-02-16T15:52:51.891Z,48.30
2019-02-16T15:55:22.343Z,48.10
2019-02-16T15:57:52.780Z,41.80
2019-02-16T16:00:27.042Z,41.47
2019-02-16T16:02:59.620Z,39.23
2019-02-16T16:05:33.108Z,36.07
2019-02-16T16:08:28.140Z,38.13
2019-02-16T16:11:07.834Z,39.17
2019-02-16T16:13:53.587Z,43.57
2019-02-16T16:16:33.399Z,39.07
2019-02-16T16:19:18.251Z,46.03
2019-02-16T16:22:03.131Z,45.43
2019-02-16T16:24:48.303Z,37.83
2019-02-16T16:27:24.718Z,36.80
2019-02-16T16:30:19.799Z,42.07
2019-02-16T16:33:08.452Z,40.40
2019-02-16T16:36:09.804Z,38.30
2019-02-16T16:38:57.863Z,38.47
2019-02-16T16:41:41.415Z,42.17
2019-02-16T16:44:46.039Z,37.27
2019-02-16T16:47:33.623Z,37.13
2019-02-16T16:50:40.999Z,41.17
2019-02-16T16:53:42.561Z,48.97
2019-02-16T16:56:30.386Z,37.70
2019-02-16T16:59:25.859Z,35.60
2019-02-16T17:02:24.115Z,46.57
2019-02-16T17:05:11.871Z,40.30
2019-02-16T17:07:59.645Z,40.90
2019-02-16T17:10:41.648Z,37.40
2019-02-16T17:13:26.069Z,44.93
2019-02-16T17:16:27.327Z,39.60
2019-02-16T17:19:16.683Z,44.73
2019-02-16T17:22:14.183Z,38.80
2019-02-16T17:25:02.261Z,37.00
2019-02-16T17:27:54.539Z,39.03
2019-02-16T17:30:41.940Z,45.73
2019-02-16T17:33:43.187Z,42.97
2019-02-16T17:36:31.255Z,40.43
2019-02-16T17:39:14.079Z,45.43
2019-02-16T17:42:03.896Z,41.60
2019-02-16T17:44:43.664Z,37.43
2019-02-16T17:47:27.627Z,39.93
2019-02-16T17:50:23.515Z,40.33
2019-02-16T17:53:24.970Z,43.07
2019-02-16T17:56:29.586Z,32.13
2019-02-16T17:59:30.847Z,37.03
2019-02-16T18:02:18.002Z,33.00
2019-02-16T18:05:00.502Z,36.93
2019-02-16T18:07:52.631Z,35.83
2019-02-16T18:10:35.132Z,38.33
2019-02-16T18:13:29.952Z,38.70
2019-02-16T18:16:15.820Z,34.30
2019-02-16T18:19:03.709Z,40.37
2019-02-16T18:21:58.902Z,41.60
2019-02-16T18:24:48.336Z,37.97
2019-02-16T18:27:37.647Z,41.63
2019-02-16T18:30:19.375Z,51.33
2019-02-16T18:33:01.270Z,40.07
2019-02-16T18:35:59.488Z,34.73
2019-02-16T18:39:03.669Z,41.27
2019-02-16T18:41:54.671Z,40.33
2019-02-16T18:44:58.971Z,40.47
2019-02-16T18:47:42.507Z,38.00
2019-02-16T18:50:41.044Z,40.13
2019-02-16T18:53:27.679Z,39.10
2019-02-16T18:56:19.489Z,40.70
2019-02-16T18:59:03.792Z,32.50
2019-02-16T19:01:58.823Z,37.53
2019-02-16T19:04:48.946Z,36.43
2019-02-16T19:07:44.279Z,38.13
2019-02-16T19:10:27.191Z,39.17
2019-02-16T19:13:07.523Z,34.57
2019-02-16T19:15:44.049Z,35.90
2019-02-16T19:18:32.863Z,35.47
2019-02-16T19:21:21.396Z,42.50
2019-02-16T19:24:13.394Z,38.10
2019-02-16T19:27:00.833Z,39.97
2019-02-16T19:29:51.156Z,42.17
2019-02-16T19:32:39.084Z,42.90
2019-02-16T19:35:39.825Z,42.73
2019-02-16T19:38:32.162Z,33.60
2019-02-16T19:41:09.488Z,33.77
2019-02-16T19:43:48.056Z,46.97
2019-02-16T19:46:32.704Z,40.67
2019-02-16T19:49:30.994Z,43.87
2019-02-16T19:52:20.347Z,40.43
2019-02-16T19:55:04.775Z,48.83
2019-02-16T19:57:54.234Z,47.73
2019-02-16T20:00:40.107Z,41.27
2019-02-16T20:03:34.056Z,38.93
2019-02-16T20:06:26.167Z,36.40
2019-02-16T20:09:11.694Z,40.23
2019-02-16T20:12:04.839Z,33.60
2019-02-16T20:14:40.618Z,41.63
2019-02-16T20:17:35.060Z,38.70
2019-02-16T20:20:30.974Z,46.10
2019-02-16T20:23:35.292Z,47.03
2019-02-16T20:26:27.524Z,40.50
2019-02-16T20:29:28.655Z,40.43
2019-02-16T20:32:15.710Z,43.63
2019-02-16T20:35:21.434Z,37.27
2019-02-16T20:38:08.408Z,41.37
2019-02-16T20:40:51.611Z,37.43
2019-02-16T20:43:43.916Z,47.17
2019-02-16T20:46:31.849Z,35.67
2019-02-16T20:49:12.714Z,44.47
2019-02-16T20:51:59.403Z,41.40
2019-02-16T20:54:57.467Z,42.50
2019-02-16T20:57:49.669Z,36.80
2019-02-16T21:00:45.091Z,46.70
2019-02-16T21:03:21.698Z,42.23
2019-02-16T21:06:14.043Z,36.60
2019-02-16T21:08:58.941Z,40.40
2019-02-16T21:11:54.123Z,31.87
2019-02-16T21:14:58.470Z,43.90
2019-02-16T21:17:46.343Z,35.90
2019-02-16T21:20:32.512Z,36.53
2019-02-16T21:23:28.014Z,41.87
2019-02-16T21:26:07.142Z,42.37
2019-02-16T21:29:14.383Z,34.57
2019-02-16T21:31:53.319Z,38.77
2019-02-16T21:34:51.513Z,41.67
2019-02-16T21:37:39.676Z,38.83
2019-02-16T21:40:28.979Z,40.30
2019-02-16T21:43:10.848Z,38.97
2019-02-16T21:46:06.033Z,33.63
2019-02-16T21:48:45.280Z,34.43
2019-02-16T21:51:44.878Z,41.87
2019-02-16T21:54:21.684Z,39.80
2019-02-16T21:57:20.035Z,37.73
2019-02-16T22:00:18.343Z,39.37
2019-02-16T22:03:10.650Z,42.53
2019-02-16T22:05:51.180Z,38.37
2019-02-16T22:08:32.833Z,38.27
2019-02-16T22:11:22.295Z,36.83
2019-02-16T22:13:52.740Z,43.93
2019-02-16T22:16:23.313Z,43.77
2019-02-16T22:18:54.595Z,39.17
2019-02-16T22:21:25.033Z,31.07
2019-02-16T22:23:55.496Z,39.83
2019-02-16T22:26:28.375Z,38.57
2019-02-16T22:28:58.763Z,38.80
2019-02-16T22:31:29.643Z,40.17
2019-02-16T22:34:00.068Z,43.47
2019-02-16T22:36:30.632Z,31.57
2019-02-16T22:39:00.981Z,42.80
2019-02-16T22:41:31.755Z,38.50
2019-02-16T22:44:02.493Z,40.92
2019-02-16T22:46:32.999Z,49.37
2019-02-16T22:49:04.454Z,33.57
2019-02-16T22:51:35.003Z,39.20
2019-02-16T22:54:05.402Z,37.10
2019-02-16T22:56:35.974Z,38.93
2019-02-16T22:59:06.383Z,37.07
2019-02-16T23:01:37.102Z,45.57
2019-02-16T23:04:09.116Z,34.07
2019-02-16T23:06:39.634Z,43.07
2019-02-16T23:09:20.510Z,40.50
2019-02-16T23:11:53.902Z,35.53
2019-02-16T23:14:24.359Z,40.35
2019-02-16T23:16:54.740Z,44.53
2019-02-16T23:19:26.159Z,39.53
2019-02-16T23:21:56.463Z,41.57
2019-02-16T23:24:27.037Z,30.93
2019-02-16T23:26:57.657Z,37.97
2019-02-16T23:29:27.979Z,37.70
2019-02-16T23:31:58.343Z,28.70
2019-02-16T23:34:28.791Z,39.47
2019-02-16T23:36:59.164Z,36.83
2019-02-16T23:39:29.551Z,38.87
2019-02-16T23:42:00.081Z,34.97
2019-02-16T23:44:30.668Z,38.07
2019-02-16T23:47:01.169Z,42.27
2019-02-16T23:49:33.331Z,46.40
2019-02-16T23:52:03.936Z,41.00
2019-02-16T23:54:34.317Z,35.57
2019-02-16T23:57:05.039Z,28.40
2019-02-16T23:59:35.440Z,39.57
